Time;durP1;ratioP1;P1;durP2;ratioP2;P2;SDS_P1;SDS_P2;PMS_P1;PMS_P2;Temp;Humidity;BMP_temperature;BMP_pressure;BME280_temperature;BME280_humidity;BME280_pressure;Samples;Min_cycle;Max_cycle;Signal;HPM_P1;HPM_P2
2022/06/07 00:01:23;;;;;;;9.83;6.20;;;;;;;;;;5016458;28;20025;-69
2022/06/07 00:03:49;;;;;;;8.37;5.70;;;;;;;;;;5027669;28;20107;-68
2022/06/07 00:06:14;;;;;;;8.53;5.70;;;;;;;;;;5021639;28;20039;-69
2022/06/07 00:08:39;;;;;;;7.60;5.80;;;;;;;;;;5019742;28;20554;-69
2022/06/07 00:11:05;;;;;;;8.90;5.50;;;;;;;;;;5028856;28;20040;-69
2022/06/07 00:13:30;;;;;;;7.77;5.93;;;;;;;;;;5021814;28;20029;-69
2022/06/07 00:15:55;;;;;;;9.43;5.50;;;;;;;;;;5015211;28;20037;-69
2022/06/07 00:18:21;;;;;;;8.70;5.37;;;;;;;;;;5009578;28;20029;-69
2022/06/07 00:20:46;;;;;;;8.37;5.57;;;;;;;;;;5009379;28;20478;-69
2022/06/07 00:23:13;;;;;;;8.30;5.00;;;;;;;;;;5010600;28;20395;-69
2022/06/07 00:25:39;;;;;;;7.20;5.03;;;;;;;;;;5019737;28;20615;-68
2022/06/07 00:28:04;;;;;;;7.27;4.83;;;;;;;;;;5012681;28;20160;-69
2022/06/07 00:30:30;;;;;;;7.40;4.73;;;;;;;;;;5010655;28;20041;-69
2022/06/07 00:32:56;;;;;;;8.77;4.00;;;;;;;;;;5010501;28;20040;-68
2022/06/07 00:35:21;;;;;;;6.23;4.23;;;;;;;;;;5026350;28;20056;-69
2022/06/07 00:37:47;;;;;;;7.60;4.43;;;;;;;;;;5013092;28;20029;-69
2022/06/07 00:40:13;;;;;;;6.97;4.10;;;;;;;;;;5022543;28;20108;-69
2022/06/07 00:42:38;;;;;;;6.17;3.80;;;;;;;;;;5030040;28;20017;-69
2022/06/07 00:45:04;;;;;;;6.33;3.87;;;;;;;;;;5030112;28;20375;-68
2022/06/07 00:47:30;;;;;;;7.30;4.23;;;;;;;;;;5030670;28;20028;-68
2022/06/07 00:49:57;;;;;;;7.00;4.00;;;;;;;;;;5024234;28;20021;-68
2022/06/07 00:52:24;;;;;;;5.80;3.93;;;;;;;;;;5028906;28;20112;-68
2022/06/07 00:54:49;;;;;;;6.07;3.97;;;;;;;;;;5024591;28;20048;-68
2022/06/07 00:57:15;;;;;;;7.30;4.50;;;;;;;;;;5032149;28;20029;-68
2022/06/07 00:59:40;;;;;;;8.03;4.70;;;;;;;;;;5026805;28;20490;-69
2022/06/07 01:02:06;;;;;;;6.53;4.23;;;;;;;;;;5024637;28;20489;-69
2022/06/07 01:04:31;;;;;;;7.97;4.60;;;;;;;;;;5026288;28;20022;-69
2022/06/07 01:12:25;;;;;;;6.83;4.67;;;;;;;;;;5023861;28;20040;-68
2022/06/07 01:14:50;;;;;;;8.80;5.33;;;;;;;;;;5025775;28;20026;-68
2022/06/07 01:17:15;;;;;;;7.37;5.00;;;;;;;;;;5027769;28;20462;-68
2022/06/07 01:19:41;;;;;;;7.03;4.47;;;;;;;;;;5028243;28;20017;-68
2022/06/07 01:22:06;;;;;;;7.17;4.73;;;;;;;;;;5028521;28;20025;-69
2022/06/07 01:24:31;;;;;;;6.77;4.37;;;;;;;;;;5020109;28;20018;-69
2022/06/07 01:26:57;;;;;;;7.50;4.23;;;;;;;;;;5017191;28;20536;-69
2022/06/07 01:29:22;;;;;;;6.10;3.93;;;;;;;;;;5018908;28;20104;-69
2022/06/07 01:31:47;;;;;;;7.43;4.70;;;;;;;;;;5015600;28;20057;-69
2022/06/07 01:34:13;;;;;;;6.47;4.60;;;;;;;;;;5019414;28;20030;-68
2022/06/07 01:36:38;;;;;;;6.57;4.17;;;;;;;;;;5020422;28;20041;-68
2022/06/07 01:41:54;;;;;;;7.23;4.60;;;;;;;;;;5028307;28;20035;-68
2022/06/07 01:44:20;;;;;;;7.75;4.68;;;;;;;;;;5030979;28;20029;-68
2022/06/07 01:46:45;;;;;;;6.73;4.20;;;;;;;;;;5026440;28;20049;-68
2022/06/07 01:49:11;;;;;;;9.13;4.47;;;;;;;;;;5026795;28;20116;-68
2022/06/07 01:51:36;;;;;;;7.13;4.30;;;;;;;;;;5024173;28;20500;-68
2022/06/07 01:54:01;;;;;;;6.03;4.07;;;;;;;;;;5025464;28;20029;-68
2022/06/07 01:56:26;;;;;;;7.57;4.70;;;;;;;;;;5022790;28;20482;-68
2022/06/07 01:58:52;;;;;;;6.90;4.40;;;;;;;;;;5027844;28;20021;-69
2022/06/07 02:01:17;;;;;;;7.43;4.20;;;;;;;;;;5014998;28;20045;-69
2022/06/07 02:03:42;;;;;;;5.93;4.10;;;;;;;;;;5026056;28;20025;-68
2022/06/07 02:06:09;;;;;;;7.93;4.70;;;;;;;;;;5015356;28;20029;-68
2022/06/07 02:08:36;;;;;;;6.73;4.40;;;;;;;;;;5020227;28;20029;-69
2022/06/07 02:11:09;;;;;;;6.47;4.43;;;;;;;;;;5023445;28;20042;-69
2022/06/07 02:13:35;;;;;;;7.63;4.40;;;;;;;;;;5022557;28;20025;-69
2022/06/07 02:16:00;;;;;;;8.40;4.70;;;;;;;;;;5025483;28;20033;-69
2022/06/07 02:18:26;;;;;;;8.80;5.17;;;;;;;;;;5015422;28;20029;-69
2022/06/07 02:20:51;;;;;;;8.30;4.87;;;;;;;;;;5021638;28;20363;-71
2022/06/07 02:23:17;;;;;;;8.13;5.17;;;;;;;;;;5027898;28;20021;-71
2022/06/07 02:25:44;;;;;;;8.07;5.33;;;;;;;;;;5025635;28;20477;-71
2022/06/07 02:28:11;;;;;;;7.93;5.33;;;;;;;;;;5017444;28;20117;-71
2022/06/07 02:30:37;;;;;;;8.70;5.50;;;;;;;;;;5025002;28;20053;-71
2022/06/07 02:33:02;;;;;;;8.47;6.07;;;;;;;;;;5011622;28;20103;-71
2022/06/07 02:35:27;;;;;;;9.50;6.10;;;;;;;;;;5016438;28;20025;-71
2022/06/07 02:37:53;;;;;;;10.30;6.57;;;;;;;;;;5029599;28;20025;-71
2022/06/07 02:40:19;;;;;;;9.40;6.83;;;;;;;;;;5021684;28;20083;-71
2022/06/07 02:42:44;;;;;;;11.00;7.07;;;;;;;;;;5020426;28;20500;-71
2022/06/07 02:45:11;;;;;;;12.23;7.50;;;;;;;;;;5017222;28;20115;-71
2022/06/07 02:47:36;;;;;;;13.17;8.30;;;;;;;;;;5019188;28;20021;-71
2022/06/07 02:50:01;;;;;;;13.30;8.27;;;;;;;;;;5029708;28;20094;-71
2022/06/07 02:52:27;;;;;;;13.70;8.93;;;;;;;;;;5021137;28;20033;-71
2022/06/07 02:54:52;;;;;;;16.37;10.00;;;;;;;;;;5021232;28;20036;-70
2022/06/07 02:57:17;;;;;;;16.20;10.03;;;;;;;;;;5027593;28;20022;-70
2022/06/07 02:59:42;;;;;;;16.73;10.80;;;;;;;;;;5021635;28;20105;-71
2022/06/07 03:02:08;;;;;;;18.30;11.70;;;;;;;;;;5028477;28;20030;-70
2022/06/07 03:04:33;;;;;;;19.50;11.97;;;;;;;;;;5032837;28;20152;-70
2022/06/07 03:06:59;;;;;;;18.73;12.23;;;;;;;;;;5026968;28;20024;-70
2022/06/07 03:09:25;;;;;;;21.83;13.30;;;;;;;;;;5033374;28;20108;-70
2022/06/07 03:11:50;;;;;;;23.87;14.10;;;;;;;;;;5026939;28;20110;-70
2022/06/07 03:14:16;;;;;;;22.63;14.47;;;;;;;;;;5026624;28;20032;-70
2022/06/07 03:16:42;;;;;;;23.43;13.80;;;;;;;;;;5027128;28;20026;-70
2022/06/07 03:19:07;;;;;;;20.83;13.40;;;;;;;;;;5028490;28;20632;-70
2022/06/07 03:21:33;;;;;;;24.00;15.10;;;;;;;;;;5027574;28;20022;-70
2022/06/07 03:23:58;;;;;;;25.30;15.43;;;;;;;;;;5027040;28;20029;-70
2022/06/07 03:26:23;;;;;;;24.37;15.63;;;;;;;;;;5021455;28;20024;-70
2022/06/07 03:28:49;;;;;;;25.17;15.13;;;;;;;;;;5024809;28;20026;-70
2022/06/07 03:31:15;;;;;;;26.13;16.43;;;;;;;;;;5031704;28;20417;-71
2022/06/07 03:33:41;;;;;;;25.80;16.73;;;;;;;;;;5031268;28;20090;-70
2022/06/07 03:36:08;;;;;;;28.27;16.60;;;;;;;;;;5030633;28;20021;-70
2022/06/07 03:38:33;;;;;;;29.00;15.80;;;;;;;;;;5031361;28;20026;-70
2022/06/07 03:40:58;;;;;;;26.63;17.37;;;;;;;;;;5032833;28;20029;-71
2022/06/07 03:43:23;;;;;;;26.60;16.20;;;;;;;;;;5022556;28;20064;-71
2022/06/07 03:45:49;;;;;;;30.43;17.83;;;;;;;;;;5026289;28;20021;-70
2022/06/07 03:48:14;;;;;;;32.20;19.40;;;;;;;;;;5015342;28;20021;-71
2022/06/07 03:50:39;;;;;;;31.37;18.53;;;;;;;;;;5023587;28;20037;-70
2022/06/07 03:53:04;;;;;;;34.77;20.17;;;;;;;;;;5015571;28;20030;-71
2022/06/07 03:55:30;;;;;;;32.83;19.57;;;;;;;;;;5020294;28;20099;-70
2022/06/07 03:57:55;;;;;;;38.77;21.20;;;;;;;;;;5028445;28;20457;-70
2022/06/07 04:00:21;;;;;;;34.57;20.33;;;;;;;;;;5025078;28;20393;-70
2022/06/07 04:02:46;;;;;;;32.37;19.97;;;;;;;;;;5032530;28;20561;-70
2022/06/07 04:05:11;;;;;;;40.13;21.67;;;;;;;;;;5033027;28;20021;-70
2022/06/07 04:10:20;;;;;;;39.07;21.30;;;;;;;;;;5027300;28;20032;-70
2022/06/07 04:12:46;;;;;;;38.37;21.03;;;;;;;;;;5028844;28;20393;-70
2022/06/07 04:15:11;;;;;;;32.60;20.33;;;;;;;;;;5028897;28;20069;-70
2022/06/07 04:17:36;;;;;;;38.17;21.87;;;;;;;;;;5029060;28;20048;-70
2022/06/07 04:20:02;;;;;;;36.73;21.90;;;;;;;;;;5018294;28;20026;-70
2022/06/07 04:22:27;;;;;;;40.70;22.23;;;;;;;;;;5030459;28;20079;-70
2022/06/07 04:24:53;;;;;;;34.63;19.23;;;;;;;;;;5019209;28;20017;-70
2022/06/07 04:27:18;;;;;;;36.63;21.87;;;;;;;;;;5019203;28;20387;-70
2022/06/07 04:29:43;;;;;;;39.57;21.60;;;;;;;;;;5029113;28;20017;-70
2022/06/07 04:32:11;;;;;;;37.53;20.47;;;;;;;;;;5025222;28;20041;-70
2022/06/07 04:34:37;;;;;;;40.60;22.87;;;;;;;;;;5019726;28;20029;-70
2022/06/07 04:37:02;;;;;;;44.67;22.07;;;;;;;;;;5020180;28;20478;-70
2022/06/07 04:39:27;;;;;;;36.93;21.60;;;;;;;;;;5013791;28;20018;-70
2022/06/07 04:41:52;;;;;;;40.03;20.90;;;;;;;;;;5018935;28;20018;-70
2022/06/07 04:44:18;;;;;;;35.97;19.63;;;;;;;;;;5020688;28;20030;-71
2022/06/07 04:46:43;;;;;;;36.17;20.00;;;;;;;;;;5023553;28;20032;-70
2022/06/07 04:49:08;;;;;;;38.67;20.23;;;;;;;;;;5030408;28;20390;-71
2022/06/07 04:51:35;;;;;;;36.00;18.60;;;;;;;;;;5021052;28;20025;-70
2022/06/07 04:54:01;;;;;;;40.77;21.33;;;;;;;;;;5020740;28;20509;-70
2022/06/07 04:56:28;;;;;;;42.10;22.23;;;;;;;;;;5032132;28;20497;-70
2022/06/07 04:58:54;;;;;;;39.80;21.50;;;;;;;;;;5029603;28;20494;-70
2022/06/07 05:01:21;;;;;;;43.97;22.77;;;;;;;;;;5021561;28;20084;-70
2022/06/07 05:03:46;;;;;;;37.70;21.60;;;;;;;;;;5023063;28;20478;-71
2022/06/07 05:06:25;;;;;;;38.13;20.03;;;;;;;;;;5028131;28;20030;-70
2022/06/07 05:08:51;;;;;;;38.17;20.23;;;;;;;;;;5031485;28;20050;-70
2022/06/07 05:11:17;;;;;;;40.47;20.83;;;;;;;;;;5027367;28;20032;-71
2022/06/07 05:13:42;;;;;;;38.47;22.07;;;;;;;;;;5017796;28;20099;-71
2022/06/07 05:16:08;;;;;;;33.73;18.17;;;;;;;;;;5028967;28;20367;-71
2022/06/07 05:18:33;;;;;;;37.10;20.93;;;;;;;;;;5017697;28;20029;-71
2022/06/07 05:20:58;;;;;;;35.13;18.07;;;;;;;;;;5024830;28;20474;-71
2022/06/07 05:23:24;;;;;;;35.50;21.17;;;;;;;;;;5031672;28;20026;-71
2022/06/07 05:25:58;;;;;;;37.27;19.50;;;;;;;;;;5031219;28;20022;-71
2022/06/07 05:28:23;;;;;;;32.13;18.07;;;;;;;;;;5018705;28;20109;-71
2022/06/07 05:30:48;;;;;;;31.17;17.53;;;;;;;;;;5017605;28;20156;-70
2022/06/07 05:33:13;;;;;;;31.00;19.03;;;;;;;;;;5032911;28;20025;-70
2022/06/07 05:35:38;;;;;;;28.57;15.57;;;;;;;;;;5032000;28;20033;-71
2022/06/07 05:38:04;;;;;;;27.47;16.23;;;;;;;;;;5022949;28;20060;-71
2022/06/07 05:40:29;;;;;;;27.80;16.30;;;;;;;;;;5031827;28;20493;-71
2022/06/07 05:42:55;;;;;;;23.13;14.33;;;;;;;;;;5017333;28;20028;-71
2022/06/07 05:45:20;;;;;;;29.70;16.20;;;;;;;;;;5028912;28;20492;-71
2022/06/07 05:47:45;;;;;;;21.60;13.87;;;;;;;;;;5032409;28;20440;-71
2022/06/07 05:50:11;;;;;;;23.57;14.30;;;;;;;;;;5020983;28;20041;-71
2022/06/07 05:52:42;;;;;;;21.97;14.70;;;;;;;;;;5022760;28;20108;-71
2022/06/07 05:55:08;;;;;;;21.23;13.00;;;;;;;;;;5020130;28;20037;-71
2022/06/07 05:57:34;;;;;;;25.03;15.40;;;;;;;;;;5023644;28;20025;-70
2022/06/07 05:59:59;;;;;;;22.27;13.83;;;;;;;;;;5024733;28;20013;-71
2022/06/07 06:02:25;;;;;;;16.63;9.13;;;;;;;;;;5031365;28;20059;-71
2022/06/07 06:04:50;;;;;;;16.57;10.03;;;;;;;;;;5031531;28;20518;-71
2022/06/07 06:07:15;;;;;;;24.07;13.83;;;;;;;;;;5025029;28;20431;-71
2022/06/07 06:12:24;;;;;;;27.13;13.80;;;;;;;;;;5029074;28;20110;-71
2022/06/07 06:14:49;;;;;;;17.23;11.47;;;;;;;;;;5021411;28;20069;-71
2022/06/07 06:17:15;;;;;;;19.20;13.77;;;;;;;;;;5015056;28;20033;-71
2022/06/07 06:19:40;;;;;;;23.33;12.60;;;;;;;;;;5019665;28;20036;-71
2022/06/07 06:22:06;;;;;;;22.60;13.67;;;;;;;;;;5028895;28;20020;-71
2022/06/07 06:24:31;;;;;;;21.03;12.87;;;;;;;;;;5023379;28;20035;-71
2022/06/07 06:26:58;;;;;;;20.40;13.07;;;;;;;;;;5016720;28;20018;-71
2022/06/07 06:29:24;;;;;;;18.07;12.37;;;;;;;;;;5012922;28;20021;-71
2022/06/07 06:31:51;;;;;;;20.90;13.67;;;;;;;;;;5011971;28;20712;-71
2022/06/07 06:34:16;;;;;;;20.30;13.77;;;;;;;;;;5011914;28;20059;-71
2022/06/07 06:36:41;;;;;;;21.57;13.70;;;;;;;;;;5011270;28;20026;-71
2022/06/07 06:39:07;;;;;;;23.87;14.40;;;;;;;;;;5023759;28;20024;-71
2022/06/07 06:41:33;;;;;;;21.20;13.50;;;;;;;;;;5031581;28;20096;-72
2022/06/07 06:44:00;;;;;;;22.73;14.47;;;;;;;;;;5029004;28;20014;-71
2022/06/07 06:46:27;;;;;;;23.20;14.87;;;;;;;;;;5029482;28;20021;-71
2022/06/07 06:48:53;;;;;;;24.10;14.53;;;;;;;;;;5031537;28;20167;-71
2022/06/07 06:51:20;;;;;;;19.73;12.17;;;;;;;;;;5030970;28;20481;-71
2022/06/07 06:53:46;;;;;;;21.23;13.73;;;;;;;;;;5031417;28;20386;-71
2022/06/07 06:56:12;;;;;;;19.60;13.33;;;;;;;;;;5030387;28;20025;-71
2022/06/07 06:58:38;;;;;;;19.53;13.17;;;;;;;;;;5029459;28;20033;-71
2022/06/07 07:01:08;;;;;;;19.40;12.63;;;;;;;;;;5017777;28;20470;-71
2022/06/07 07:03:34;;;;;;;19.77;13.68;;;;;;;;;;5011288;28;20029;-71
2022/06/07 07:06:00;;;;;;;19.67;12.03;;;;;;;;;;5019931;28;20328;-71
2022/06/07 07:08:25;;;;;;;21.80;13.70;;;;;;;;;;5027780;28;20022;-71
2022/06/07 07:11:02;;;;;;;21.13;14.07;;;;;;;;;;5011492;28;20026;-71
2022/06/07 07:13:29;;;;;;;21.97;12.30;;;;;;;;;;5024981;28;20033;-71
2022/06/07 07:15:54;;;;;;;20.80;14.07;;;;;;;;;;5024739;28;20414;-71
2022/06/07 07:18:19;;;;;;;21.33;14.30;;;;;;;;;;5029464;28;20045;-71
2022/06/07 07:20:44;;;;;;;20.20;13.40;;;;;;;;;;5011359;28;20057;-71
2022/06/07 07:23:10;;;;;;;24.93;13.77;;;;;;;;;;5011507;28;20026;-71
2022/06/07 07:25:36;;;;;;;20.83;14.07;;;;;;;;;;5018706;28;20381;-71
2022/06/07 07:28:01;;;;;;;18.07;11.40;;;;;;;;;;5031267;28;20037;-71
2022/06/07 07:30:26;;;;;;;23.70;14.33;;;;;;;;;;5028467;28;20105;-71
2022/06/07 07:32:51;;;;;;;18.30;13.20;;;;;;;;;;5030565;28;20536;-71
2022/06/07 07:35:18;;;;;;;20.95;12.85;;;;;;;;;;5031022;28;20405;-70
2022/06/07 07:37:43;;;;;;;17.77;12.27;;;;;;;;;;5020157;28;20022;-71
2022/06/07 07:40:09;;;;;;;16.53;11.93;;;;;;;;;;5015140;28;20246;-71
2022/06/07 07:42:34;;;;;;;19.50;13.95;;;;;;;;;;5027474;28;20322;-71
2022/06/07 07:45:00;;;;;;;21.55;13.27;;;;;;;;;;5029981;28;20474;-71
2022/06/07 07:47:25;;;;;;;21.30;14.23;;;;;;;;;;5015457;28;20092;-71
2022/06/07 07:49:50;;;;;;;18.07;11.53;;;;;;;;;;5014627;28;20478;-71
2022/06/07 07:52:19;;;;;;;22.30;14.40;;;;;;;;;;5016202;28;20030;-71
2022/06/07 07:54:44;;;;;;;18.97;14.30;;;;;;;;;;5014869;28;20045;-71
2022/06/07 07:57:10;;;;;;;21.70;14.50;;;;;;;;;;5015811;28;20022;-71
2022/06/07 07:59:35;;;;;;;20.40;14.23;;;;;;;;;;5015608;28;20025;-71
2022/06/07 08:02:00;;;;;;;27.13;14.10;;;;;;;;;;5017392;28;20029;-71
2022/06/07 08:04:26;;;;;;;21.00;14.55;;;;;;;;;;5014408;28;20029;-71
2022/06/07 08:06:51;;;;;;;18.40;12.68;;;;;;;;;;5013887;28;20105;-71
2022/06/07 08:09:16;;;;;;;18.75;12.43;;;;;;;;;;5014480;28;20030;-71
2022/06/07 08:11:42;;;;;;;17.17;12.35;;;;;;;;;;5019699;28;20022;-71
2022/06/07 08:14:09;;;;;;;18.08;12.50;;;;;;;;;;5024906;28;20322;-71
2022/06/07 08:16:34;;;;;;;19.80;12.70;;;;;;;;;;5025594;28;20036;-71
2022/06/07 08:18:59;;;;;;;20.95;14.38;;;;;;;;;;5016707;28;20030;-71
2022/06/07 08:21:26;;;;;;;21.92;14.68;;;;;;;;;;5014493;28;20029;-71
2022/06/07 08:23:55;;;;;;;20.23;14.95;;;;;;;;;;5023160;28;20072;-71
2022/06/07 08:26:21;;;;;;;20.80;14.57;;;;;;;;;;5031047;28;20018;-71
2022/06/07 08:28:46;;;;;;;21.83;12.93;;;;;;;;;;5031135;28;20032;-71
2022/06/07 08:31:16;;;;;;;18.85;12.57;;;;;;;;;;5031570;28;20025;-70
2022/06/07 08:39:10;;;;;;;16.85;11.95;;;;;;;;;;5013974;28;20466;-70
2022/06/07 08:41:39;;;;;;;16.40;11.73;;;;;;;;;;5019115;28;20100;-70
2022/06/07 08:44:06;;;;;;;14.38;10.07;;;;;;;;;;5027980;28;20034;-70
2022/06/07 08:46:33;;;;;;;16.45;9.57;;;;;;;;;;5015969;28;20058;-70
2022/06/07 08:48:59;;;;;;;15.00;9.52;;;;;;;;;;5013834;28;20034;-70
2022/06/07 08:51:26;;;;;;;12.85;9.00;;;;;;;;;;5020357;28;20036;-71
2022/06/07 08:54:04;;;;;;;11.90;9.10;;;;;;;;;;5033274;28;20025;-71
2022/06/07 08:56:33;;;;;;;12.68;9.10;;;;;;;;;;5022737;28;20033;-70
2022/06/07 08:59:00;;;;;;;11.93;8.73;;;;;;;;;;5013324;28;20445;-71
2022/06/07 09:01:35;;;;;;;12.70;8.63;;;;;;;;;;5014223;28;20447;-71
2022/06/07 09:04:07;;;;;;;13.45;8.10;;;;;;;;;;5024506;28;20029;-70
2022/06/07 09:06:34;;;;;;;15.82;10.80;;;;;;;;;;5032942;28;20037;-71
2022/06/07 09:08:59;;;;;;;15.90;10.27;;;;;;;;;;5030124;28;20025;-71
2022/06/07 09:14:17;;;;;;;13.52;9.68;;;;;;;;;;5030905;28;20044;-71
2022/06/07 09:16:43;;;;;;;14.43;9.45;;;;;;;;;;5030574;28;20136;-71
2022/06/07 09:19:11;;;;;;;15.77;11.80;;;;;;;;;;5030101;28;20060;-71
2022/06/07 09:21:39;;;;;;;14.55;11.38;;;;;;;;;;5027265;28;20034;-71
2022/06/07 09:24:08;;;;;;;14.57;9.65;;;;;;;;;;5031305;28;20029;-71
2022/06/07 09:26:38;;;;;;;14.13;10.23;;;;;;;;;;5032554;28;20056;-71
2022/06/07 09:29:12;;;;;;;13.50;9.85;;;;;;;;;;5032804;28;20052;-71
2022/06/07 09:31:39;;;;;;;14.85;10.60;;;;;;;;;;5030205;28;20041;-71
2022/06/07 09:34:06;;;;;;;14.25;10.80;;;;;;;;;;5028033;28;20037;-71
2022/06/07 09:36:41;;;;;;;16.13;11.40;;;;;;;;;;5030556;28;20484;-71
2022/06/07 09:39:19;;;;;;;13.82;10.88;;;;;;;;;;5032285;28;20025;-71
2022/06/07 09:41:47;;;;;;;12.32;9.77;;;;;;;;;;5032351;28;20101;-71
2022/06/07 09:44:16;;;;;;;14.13;9.57;;;;;;;;;;5032334;28;20028;-71
2022/06/07 09:46:47;;;;;;;11.45;9.02;;;;;;;;;;5016366;28;20471;-71
2022/06/07 09:49:24;;;;;;;10.45;7.80;;;;;;;;;;5027370;28;20029;-71
2022/06/07 09:51:49;;;;;;;11.98;8.80;;;;;;;;;;5032195;28;20033;-71
2022/06/07 09:54:16;;;;;;;13.32;9.70;;;;;;;;;;5032087;28;20024;-71
2022/06/07 09:56:45;;;;;;;17.77;11.95;;;;;;;;;;5016684;28;20037;-71
2022/06/07 09:59:10;;;;;;;13.75;10.05;;;;;;;;;;5014998;28;20145;-71
2022/06/07 10:01:42;;;;;;;15.55;10.88;;;;;;;;;;5025282;28;20121;-71
2022/06/07 10:04:10;;;;;;;15.90;9.70;;;;;;;;;;5011983;28;20030;-71
2022/06/07 10:06:42;;;;;;;14.52;10.48;;;;;;;;;;5012492;28;20478;-71
2022/06/07 10:09:17;;;;;;;15.48;11.27;;;;;;;;;;5011844;28;20025;-71
2022/06/07 10:11:42;;;;;;;17.08;10.65;;;;;;;;;;5012290;28;20125;-71
2022/06/07 10:14:19;;;;;;;13.57;9.48;;;;;;;;;;5020271;28;20116;-71
2022/06/07 10:17:10;;;;;;;12.70;9.02;;;;;;;;;;5022056;28;20884;-71
2022/06/07 10:19:58;;;;;;;12.80;9.43;;;;;;;;;;5011891;28;20038;-71
2022/06/07 10:22:36;;;;;;;13.63;9.18;;;;;;;;;;5014227;28;20064;-71
2022/06/07 10:25:23;;;;;;;11.93;8.43;;;;;;;;;;5017998;28;20484;-71
2022/06/07 10:27:57;;;;;;;11.82;7.47;;;;;;;;;;5012193;28;20093;-71
2022/06/07 10:30:26;;;;;;;10.38;8.35;;;;;;;;;;5012768;28;20068;-71
2022/06/07 10:32:59;;;;;;;11.68;8.30;;;;;;;;;;5024778;28;20028;-71
2022/06/07 10:35:31;;;;;;;12.40;8.43;;;;;;;;;;5031507;28;20021;-71
2022/06/07 10:38:11;;;;;;;12.45;8.55;;;;;;;;;;5031570;28;20100;-71
2022/06/07 10:40:55;;;;;;;15.07;9.18;;;;;;;;;;5030001;28;20484;-71
2022/06/07 10:43:26;;;;;;;12.75;8.63;;;;;;;;;;5030746;28;20031;-71
2022/06/07 10:45:59;;;;;;;11.80;8.30;;;;;;;;;;5026977;28;20018;-71
2022/06/07 10:48:32;;;;;;;11.88;8.70;;;;;;;;;;5013233;28;20576;-71
2022/06/07 10:52:20;;;;;;;10.90;7.85;;;;;;;;;;5011817;28;20100;-71
2022/06/07 10:53:58;;;;;;;9.95;6.35;;;;;;;;;;5019203;28;20052;-71
2022/06/07 10:56:26;;;;;;;10.30;7.18;;;;;;;;;;5020931;28;20033;-71
2022/06/07 10:58:52;;;;;;;15.13;8.05;;;;;;;;;;5011382;28;20018;-71
2022/06/07 11:01:40;;;;;;;9.57;6.20;;;;;;;;;;5013534;28;20017;-71
2022/06/07 11:04:05;;;;;;;12.60;9.07;;;;;;;;;;5011755;28;20045;-71
2022/06/07 11:09:42;;;;;;;11.07;6.82;;;;;;;;;;5012178;28;20040;-71
2022/06/07 11:12:13;;;;;;;9.63;5.80;;;;;;;;;;5011245;28;20029;-71
2022/06/07 11:15:05;;;;;;;12.23;6.78;;;;;;;;;;5011480;28;20050;-71
2022/06/07 11:17:30;;;;;;;11.23;5.90;;;;;;;;;;5019040;28;20030;-71
2022/06/07 11:19:58;;;;;;;7.60;5.22;;;;;;;;;;5011515;28;20109;-71
2022/06/07 11:22:30;;;;;;;9.38;5.85;;;;;;;;;;5029244;28;20025;-71
2022/06/07 11:24:59;;;;;;;10.65;6.57;;;;;;;;;;5034071;28;20071;-71
2022/06/07 11:27:25;;;;;;;11.02;6.63;;;;;;;;;;5035075;28;20071;-71
2022/06/07 11:30:10;;;;;;;9.13;6.72;;;;;;;;;;5035027;28;20114;-71
2022/06/07 11:32:36;;;;;;;9.15;6.15;;;;;;;;;;5017729;28;20386;-71
2022/06/07 11:35:20;;;;;;;7.88;5.20;;;;;;;;;;5014955;28;20037;-71
2022/06/07 11:37:51;;;;;;;8.35;5.03;;;;;;;;;;5015211;28;20121;-71
2022/06/07 11:40:27;;;;;;;11.68;5.57;;;;;;;;;;5014746;28;20022;-71
2022/06/07 11:42:52;;;;;;;7.75;5.18;;;;;;;;;;5030213;28;20414;-71
2022/06/07 11:45:18;;;;;;;9.52;5.47;;;;;;;;;;5015258;28;20072;-71
2022/06/07 11:47:43;;;;;;;8.70;4.90;;;;;;;;;;5014939;28;20018;-71
2022/06/07 11:50:24;;;;;;;6.28;4.18;;;;;;;;;;5014892;28;20097;-71
2022/06/07 11:52:57;;;;;;;10.38;4.43;;;;;;;;;;5016426;28;20033;-71
2022/06/07 11:55:25;;;;;;;6.40;4.60;;;;;;;;;;5034956;28;20025;-71
2022/06/07 11:57:53;;;;;;;8.55;4.90;;;;;;;;;;5034690;28;20111;-71
2022/06/07 12:00:18;;;;;;;8.70;4.93;;;;;;;;;;5034504;28;20029;-71
2022/06/07 12:02:56;;;;;;;9.38;4.68;;;;;;;;;;5020502;28;20030;-71
2022/06/07 12:05:28;;;;;;;6.95;5.00;;;;;;;;;;5015187;28;20477;-71
2022/06/07 12:07:56;;;;;;;7.05;4.47;;;;;;;;;;5014362;28;20394;-71
2022/06/07 12:10:29;;;;;;;6.20;4.05;;;;;;;;;;5014155;28;20120;-72
2022/06/07 12:12:55;;;;;;;8.63;4.60;;;;;;;;;;5014637;28;20501;-72
2022/06/07 12:15:22;;;;;;;9.43;5.03;;;;;;;;;;5014738;28;20032;-71
2022/06/07 12:17:53;;;;;;;6.78;4.70;;;;;;;;;;5014427;28;20030;-71
2022/06/07 12:20:23;;;;;;;10.82;5.00;;;;;;;;;;5015590;28;20026;-71
2022/06/07 12:22:49;;;;;;;9.45;5.35;;;;;;;;;;5032879;28;20028;-71
2022/06/07 12:25:22;;;;;;;8.25;5.68;;;;;;;;;;5032925;28;20101;-71
2022/06/07 12:27:52;;;;;;;11.10;5.82;;;;;;;;;;5034053;28;20025;-71
2022/06/07 12:30:24;;;;;;;8.05;6.18;;;;;;;;;;5034439;28;20017;-71
2022/06/07 12:32:50;;;;;;;9.48;6.15;;;;;;;;;;5021477;28;20030;-71
2022/06/07 12:35:23;;;;;;;9.60;5.90;;;;;;;;;;5013841;28;20080;-71
2022/06/07 12:37:51;;;;;;;8.98;6.07;;;;;;;;;;5013959;28;20125;-71
2022/06/07 12:40:21;;;;;;;7.78;5.13;;;;;;;;;;5013871;28;20030;-72
2022/06/07 12:42:47;;;;;;;7.78;5.20;;;;;;;;;;5014620;28;20026;-71
2022/06/07 12:45:21;;;;;;;8.90;5.47;;;;;;;;;;5014136;28;20076;-71
2022/06/07 12:47:52;;;;;;;10.55;6.25;;;;;;;;;;5015686;28;20053;-71
2022/06/07 12:50:22;;;;;;;9.68;6.63;;;;;;;;;;5013522;28;20026;-71
2022/06/07 12:52:50;;;;;;;8.30;6.45;;;;;;;;;;5022136;28;20467;-71
2022/06/07 12:55:36;;;;;;;8.95;6.70;;;;;;;;;;5033273;28;20093;-71
2022/06/07 12:58:06;;;;;;;12.23;6.80;;;;;;;;;;5032766;28;20116;-71
2022/06/07 13:00:39;;;;;;;8.75;6.53;;;;;;;;;;5030554;28;20104;-71
2022/06/07 13:03:13;;;;;;;10.63;7.05;;;;;;;;;;5018523;28;20057;-71
2022/06/07 13:05:39;;;;;;;9.48;6.28;;;;;;;;;;5013763;28;20022;-71
2022/06/07 13:08:15;;;;;;;10.18;6.55;;;;;;;;;;5014987;28;20030;-71
2022/06/07 13:10:40;;;;;;;9.77;6.43;;;;;;;;;;5032754;28;20034;-71
2022/06/07 13:13:15;;;;;;;10.32;6.53;;;;;;;;;;5033299;28;20026;-72
2022/06/07 13:15:58;;;;;;;7.88;6.40;;;;;;;;;;5033011;28;20094;-71
2022/06/07 13:18:28;;;;;;;8.27;6.10;;;;;;;;;;5026458;28;20116;-72
2022/06/07 13:21:23;;;;;;;8.02;5.90;;;;;;;;;;5032598;28;20028;-72
2022/06/07 13:23:54;;;;;;;9.43;5.60;;;;;;;;;;5031425;28;20239;-71
2022/06/07 13:26:25;;;;;;;8.25;5.95;;;;;;;;;;5032789;28;20033;-72
2022/06/07 13:29:09;;;;;;;8.95;6.53;;;;;;;;;;5031128;28;20049;-72
2022/06/07 13:31:49;;;;;;;7.93;6.07;;;;;;;;;;5032421;28;20035;-72
2022/06/07 13:34:22;;;;;;;8.82;6.47;;;;;;;;;;5017020;28;20037;-71
2022/06/07 13:37:00;;;;;;;9.02;6.28;;;;;;;;;;5013668;28;20463;-71
2022/06/07 13:39:26;;;;;;;10.25;6.00;;;;;;;;;;5031180;28;20026;-71
2022/06/07 13:41:54;;;;;;;7.68;5.40;;;;;;;;;;5012980;28;20088;-72
2022/06/07 13:44:19;;;;;;;8.38;5.70;;;;;;;;;;5011942;28;20014;-71
2022/06/07 13:47:01;;;;;;;9.73;5.85;;;;;;;;;;5011222;28;20448;-71
2022/06/07 13:55:17;;;;;;;8.10;6.22;;;;;;;;;;5032034;28;20532;-71
2022/06/07 13:57:42;;;;;;;12.07;7.13;;;;;;;;;;5030622;28;20064;-71
2022/06/07 14:00:08;;;;;;;10.23;6.90;;;;;;;;;;5029349;28;20511;-71
2022/06/07 14:02:37;;;;;;;10.82;6.47;;;;;;;;;;5020120;28;20033;-71
2022/06/07 14:05:02;;;;;;;8.80;7.22;;;;;;;;;;5030767;28;20025;-71
2022/06/07 14:07:28;;;;;;;13.10;6.18;;;;;;;;;;5028822;28;20474;-71
2022/06/07 14:09:55;;;;;;;9.90;6.13;;;;;;;;;;5012303;28;20402;-71
2022/06/07 14:12:20;;;;;;;8.57;6.10;;;;;;;;;;5011997;28;20401;-72
2022/06/07 14:14:45;;;;;;;7.65;5.68;;;;;;;;;;5012445;28;20030;-72
2022/06/07 14:17:15;;;;;;;10.35;6.20;;;;;;;;;;5010823;28;20214;-72
2022/06/07 14:19:44;;;;;;;8.15;5.55;;;;;;;;;;5024823;28;20680;-72
2022/06/07 14:22:17;;;;;;;7.65;5.45;;;;;;;;;;5030924;28;20114;-72
2022/06/07 14:24:44;;;;;;;11.38;5.95;;;;;;;;;;5031856;28;20045;-71
2022/06/07 14:27:19;;;;;;;8.57;5.95;;;;;;;;;;5028210;28;20029;-72
2022/06/07 14:29:45;;;;;;;8.18;5.63;;;;;;;;;;5027632;28;20466;-72
2022/06/07 14:32:19;;;;;;;10.18;6.15;;;;;;;;;;5031510;28;20029;-72
2022/06/07 14:34:44;;;;;;;7.57;5.35;;;;;;;;;;5022807;28;20026;-72
2022/06/07 14:37:14;;;;;;;8.48;5.75;;;;;;;;;;5011704;28;20026;-72
2022/06/07 14:39:39;;;;;;;8.80;5.57;;;;;;;;;;5011873;28;20032;-71
2022/06/07 14:42:05;;;;;;;10.43;6.53;;;;;;;;;;5025737;28;20147;-71
2022/06/07 14:44:30;;;;;;;10.88;6.65;;;;;;;;;;5031525;28;20867;-71
2022/06/07 14:46:56;;;;;;;9.38;6.82;;;;;;;;;;5031302;28;20016;-71
2022/06/07 14:49:32;;;;;;;8.95;6.47;;;;;;;;;;5027722;28;20025;-71
2022/06/07 14:51:58;;;;;;;9.13;6.40;;;;;;;;;;5017777;28;20492;-72
2022/06/07 14:54:27;;;;;;;10.43;6.53;;;;;;;;;;5021332;28;20105;-72
2022/06/07 14:56:52;;;;;;;12.38;6.80;;;;;;;;;;5025977;28;20017;-72
2022/06/07 14:59:19;;;;;;;10.07;7.25;;;;;;;;;;5017171;28;20470;-71
2022/06/07 15:01:46;;;;;;;10.75;6.55;;;;;;;;;;5011668;28;20381;-71
2022/06/07 15:04:15;;;;;;;7.97;5.88;;;;;;;;;;5013469;28;20029;-71